• Join FlightAware (Why Join?)
  • Login
  • US Flag 
06:28AM EDT


 

Airport Tracker/Info


-or-


 

Live Flight TrackerFlight Track Log ✈ FFT532 ✈ 28-Apr-2013 ✈ KDEN - KMDW

Flight Track Log - Related Links

Times and Time Zones

All times are in EDT time to prevent confusion due to time zone crossing. See the FFT532 flight status page for this flight to view local times or setup timezone preferences in your user account.

Time Position Orientation Groundspeed Altitude Reporting Facility
EDT Latitude Longitude Course Direction KTS MPH feet Rate Location/Type
09:28AM 39.8167 -104.6333 90° East 198 228 7,100  Level Denver TRACON
09:29AM 39.8167 -104.5333 90° East 259 298 8,200 1,860 Climbing Denver TRACON
09:30AM 39.8103 -104.4328 95° East 296 341 10,800 2,340 Climbing Denver Center
09:31AM 39.8208 -104.3122 83° East 333 383 12,900 2,280 Climbing Denver Center
09:32AM 39.8358 -104.1858 81° East 356 410 15,500 2,280 Climbing Denver Center
09:33AM 39.8561 -104.0544 79° East 371 427 17,500 2,040 Climbing Denver Center
09:34AM 39.8767 -103.9169 79° East 390 449 19,600 1,980 Climbing Denver Center
09:35AM 39.8992 -103.7744 78° East 402 463 21,600 1,980 Climbing Denver Center
09:36AM 39.9225 -103.6236 79° East 403 464 23,700 1,920 Climbing Denver Center
09:37AM 39.9447 -103.4733 79° East 418 481 25,500 1,680 Climbing Denver Center
09:38AM 39.9669 -103.3181 79° East 431 496 27,200 1,500 Climbing Denver Center
09:39AM 39.9908 -103.1617 79° East 436 502 28,600 1,320 Climbing Denver Center
09:40AM 40.0153 -103.0008 79° East 448 516 29,900 1,200 Climbing Denver Center
09:41AM 40.0369 -102.8375 80° East 452 520 31,100 1,260 Climbing Denver Center
09:42AM 40.0608 -102.6761 79° East 453 521 32,500 1,380 Climbing Denver Center
09:43AM 40.0836 -102.5208 79° East 455 524 34,000 1,380 Climbing Denver Center
09:44AM 40.1042 -102.3703 80° East 441 507 35,300 1,200 Climbing Denver Center
09:45AM 40.1283 -102.1936 80° East 442 509 36,500 960 Climbing Denver Center
09:46AM 40.1494 -102.0469 79° East 434 499 37,300 660 Climbing Denver Center
09:47AM 40.1694 -101.8975 80° East 436 502 37,900 540 Climbing Denver Center
09:48AM 40.1928 -101.7219 80° East 441 507 38,400 360 Climbing Denver Center
09:49AM 40.2128 -101.5708 80° East 444 511 38,700 240 Climbing Denver Center
09:50AM 40.2367 -101.3928 80° East 447 514 39,000 120 Climbing Denver Center
09:51AM 40.2564 -101.2406 80° East 444 511 39,000  Level Denver Center
09:52AM 40.2761 -101.0869 80° East 448 516 39,000  Level Denver Center
09:53AM 40.2994 -100.9078 80° East 449 517 39,000  Level Denver Center
09:55AM 40.3314 -100.6600 80° East 450 518 39,000  Level Minneapolis Center
09:55AM 40.3372 -100.6006 83° East 448 516 39,000 -120 Level Denver Center
09:56AM 40.3594 -100.4219 81° East 447 514 38,900 -60 Descending Denver Center
09:57AM 40.3778 -100.2700 81° East 445 512 38,900  Level Denver Center
09:58AM 40.3997 -100.0914 81° East 448 516 38,900  Level Denver Center
09:59AM 40.4172 -99.9378 81° East 447 514 39,000  Climbing Denver Center
10:00AM 40.4356 -99.7908 81° East 450 518 39,000  Level Denver Center
10:01AM 40.4567 -99.5964 82° East 450 518 39,000  Level Denver Center
10:02AM 40.4758 -99.4350 81° East 449 517 39,000  Level Denver Center
10:03AM 40.4942 -99.2756 81° East 444 511 39,000  Level Denver Center
10:04AM 40.5117 -99.1150 82° East 445 512 39,000  Level Denver Center
10:05AM 40.5217 -99.0192 82° East 446 513 39,000  Level Minneapolis Center
10:06AM 40.5403 -98.8589 81° East 446 513 39,000  Level Minneapolis Center
10:07AM 40.5567 -98.6994 82° East 445 512 39,000  Level Minneapolis Center
10:08AM 40.5736 -98.5406 82° East 443 510 39,000  Level Minneapolis Center
10:09AM 40.5897 -98.3814 82° East 442 509 39,000 -60 Level Minneapolis Center
10:10AM 40.6058 -98.2217 82° East 442 509 38,900  Descending Minneapolis Center
10:11AM 40.6225 -98.0633 82° East 441 507 39,000  Climbing Minneapolis Center
10:12AM 40.6411 -97.8725 83° East 441 507 39,000  Level Minneapolis Center
10:13AM 40.6564 -97.7139 83° East 439 505 39,000  Level Minneapolis Center
10:14AM 40.6719 -97.5547 83° East 439 505 39,000  Level Minneapolis Center
10:15AM 40.6872 -97.3947 83° East 440 506 39,000 -60 Level Minneapolis Center
10:16AM 40.7017 -97.2358 83° East 438 504 38,900 -60 Descending Minneapolis Center
10:17AM 40.7175 -97.0772 82° East 437 503 38,900  Level Minneapolis Center
10:18AM 40.7353 -96.8878 83° East 436 502 39,000  Climbing Minneapolis Center
10:19AM 40.7492 -96.7283 83° East 437 503 39,000  Level Minneapolis Center
10:20AM 40.7628 -96.5681 84° East 440 506 39,000  Level Minneapolis Center
10:22AM 40.7794 -96.3781 83° East 439 505 39,000 -60 Level Minneapolis Center
10:23AM 40.7953 -96.1867 84° East 440 506 38,900 -60 Descending Minneapolis Center
10:24AM 40.8083 -96.0286 84° East 438 504 38,900  Level Minneapolis Center
10:25AM 40.8225 -95.8692 83° East 439 505 38,900  Level Minneapolis Center
10:26AM 40.8344 -95.7097 84° East 441 507 39,000  Climbing Minneapolis Center
10:27AM 40.8472 -95.5494 84° East 441 507 39,000  Level Minneapolis Center
10:28AM 40.8603 -95.3889 84° East 442 509 39,000 -60 Level Minneapolis Center
10:29AM 40.8725 -95.2281 84° East 442 509 38,900  Descending Minneapolis Center
10:30AM 40.8844 -95.0664 84° East 444 511 39,000  Climbing Minneapolis Center
10:31AM 40.8992 -94.8711 84° East 446 513 39,000  Level Minneapolis Center
10:32AM 40.9103 -94.7078 85° East 447 514 39,000  Level Minneapolis Center
10:33AM 40.9217 -94.5497 85° East 447 514 39,000  Level Minneapolis Center
10:34AM 40.9333 -94.3875 85° East 446 513 39,000 -60 Level Minneapolis Center
10:35AM 40.9442 -94.2261 85° East 446 513 38,900 -60 Descending Minneapolis Center
10:36AM 40.9525 -94.0664 86° East 441 507 38,900  Level Minneapolis Center
10:37AM 40.9647 -93.8719 85° East 444 511 39,000  Climbing Minneapolis Center
10:38AM 40.9767 -93.7094 84° East 445 512 39,000  Level Minneapolis Center
10:39AM 40.9856 -93.5469 86° East 446 513 39,000 -360 Level Minneapolis Center
10:40AM 40.9958 -93.3856 85° East 444 511 38,300 -840 Descending Minneapolis Center
10:41AM 41.0056 -93.2217 85° East 447 514 37,300 -660 Descending Minneapolis Center
10:42AM 41.0153 -93.0581 85° East 448 516 37,000 -180 Descending Minneapolis Center
10:43AM 41.0239 -92.9011 86° East 436 502 37,000  Level Minneapolis Center
10:43AM 41.0278 -92.8381 85° East 429 494 37,000 -120 Level Chicago Center
10:44AM 41.0369 -92.6808 86° East 430 495 36,900 -60 Descending Chicago Center
10:45AM 41.0444 -92.5247 86° East 427 491 36,900 -180 Level Chicago Center
10:46AM 41.0522 -92.3667 86° East 430 495 36,600 -720 Descending Chicago Center
10:47AM 41.0622 -92.1778 86° East 428 493 35,500 -1,080 Descending Chicago Center
10:49AM 41.0700 -92.0208 86° East 427 491 34,500 -900 Descending Chicago Center
10:50AM 41.0769 -91.8672 87° East 422 486 33,700 -720 Descending Chicago Center
10:51AM 41.0831 -91.7156 87° East 417 480 33,100 -660 Descending Chicago Center
10:52AM 41.0919 -91.5503 86° East 420 483 32,400 -840 Descending Chicago Center
10:53AM 41.0978 -91.3944 87° East 423 487 31,500 -960 Descending Chicago Center
10:54AM 41.1042 -91.2417 87° East 418 481 30,500 -1,020 Descending Chicago Center
10:55AM 41.1108 -91.0858 87° East 422 486 29,500 -1,260 Descending Chicago Center
10:56AM 41.1169 -90.9306 87° East 422 486 28,000 -2,040 Descending Chicago Center
10:57AM 41.1225 -90.7717 87° East 430 495 25,400 -2,280 Descending Chicago Center
10:58AM 41.1286 -90.6053 87° East 446 513 23,400 -1,860 Descending Chicago Center
10:59AM 41.1353 -90.4119 87° East 438 504 21,700 -1,560 Descending Chicago Center
11:00AM 41.1411 -90.2550 87° East 427 491 20,300 -1,440 Descending Chicago Center
11:01AM 41.1461 -90.1003 87° East 420 483 18,800 -1,500 Descending Chicago Center
11:02AM 41.1497 -89.9511 88° East 408 470 17,300 -1,500 Descending Chicago Center
11:03AM 41.1542 -89.8069 88° East 395 455 15,800 -1,200 Descending Chicago Center
11:04AM 41.1589 -89.6625 87° East 391 450 14,900 -420 Descending Chicago Center
11:05AM 41.1975 -89.5431 67° East 366 421 15,000  Climbing Chicago Center
11:06AM 41.2325 -89.4292 68° East 346 398 15,000  Level Chicago Center
11:07AM 41.2656 -89.3161 69° East 331 381 15,000 -300 Level Chicago Center
11:08AM 41.3042 -89.1789 69° East 332 382 14,500 -1,320 Descending Chicago Center
11:09AM 41.3353 -89.0661 70° East 327 376 12,400 -1,860 Descending Chicago Center
11:10AM 41.3686 -88.9531 69° East 330 380 10,800 -1,320 Descending Chicago Center
11:11AM 41.3978 -88.8497 69° East 304 350 9,700 -1,260 Descending Chicago Center
11:12AM 41.4253 -88.7514 70° East 286 329 8,300 -1,380 Descending Chicago Center
11:13AM 41.4503 -88.6558 71° East 276 318 6,900 -1,140 Descending Chicago Center
11:14AM 41.4722 -88.5611 73° East 270 311 6,000 -480 Descending Chicago Center
11:15AM 41.4989 -88.4461 73° East 270 311 6,000 -360 Level Chicago Center
11:16AM 41.5208 -88.3536 72° East 266 306 5,300 -540 Descending Chicago Center
11:17AM 41.5406 -88.2728 72° East 237 273 5,000 -300 Descending Chicago Center
11:18AM 41.5594 -88.1886 73° East 234 269 4,700 -420 Descending Chicago Center
11:19AM 41.5786 -88.1069 73° East 231 266 4,200 -360 Descending Chicago Center
11:20AM 41.5983 -88.0256 72° East 230 265 4,000 -120 Descending Chicago Center
11:21AM 41.6267 -87.9531 62° Northeast 227 261 4,000 -120 Level Chicago Center
11:22AM 41.6667 -87.9017 44° Northeast 209 241 3,800 -720 Descending Chicago Center
11:23AM 41.7167 -87.8500 38° Northeast 179 206 2,600 -1,080 Descending Chicago TRACON
11:24AM 41.7333 -87.8167 56° Northeast 152 175 1,800 -840 Descending Chicago TRACON
11:25AM 41.7667 -87.7833 37° Northeast 126 145 1,100 -720 Descending Chicago TRACON